This is the latest recevied weather packets stored in our database for station/object LRSV. If no packets are shown the sender has not sent any weather packets the latest 10 day(s).
| Time | Temp. | Humidity | Pressure | Rain* | Wind** | Luminosity | Snow |
|---|---|---|---|---|---|---|---|
| 1788103100 | 23.89° C | 61% | 1018 hPa | - | - | - | - |
| 1788102202 | 23.89° C | 61% | 1018 hPa | - | - | - | - |
| 1788101301 | 23.89° C | 57% | 1018 hPa | - | - | - | - |
| 1788100400 | 23.89° C | 57% | 1018 hPa | - | - | - | - |
| 1788099500 | 25° C | 57% | 1017 hPa | - | - | - | - |
| 1788098599 | 25° C | 57% | 1017 hPa | - | - | - | - |
| 1788097700 | 27.22° C | 51% | 1017 hPa | - | - | - | - |
| 1788096814 | 27.22° C | 51% | 1017 hPa | - | - | - | - |
| 1788095901 | 26.11° C | 54% | 1018 hPa | - | - | - | - |
| 1788095000 | 26.11° C | 54% | 1018 hPa | - | - | - | - |
| 1788094100 | 26.11° C | 54% | 1018 hPa | - | - | - | - |
| 1788093199 | 26.11° C | 54% | 1018 hPa | - | - | - | - |
| 1788092377 | 25° C | 61% | 1018 hPa | - | - | - | - |
| 1788091400 | 25° C | 61% | 1018 hPa | - | - | - | - |
| 1788090498 | 25° C | 61% | 1018 hPa | - | - | - | - |
| 1788089600 | 25° C | 61% | 1018 hPa | - | - | - | - |
| 1788088700 | 25° C | 57% | 1019 hPa | - | - | - | - |
| 1788087800 | 25° C | 57% | 1019 hPa | - | - | - | - |
| 1788086900 | 23.89° C | 65% | 1019 hPa | - | - | - | - |
| 1788086000 | 23.89° C | 65% | 1019 hPa | - | - | - | - |
| 1788085114 | 23.89° C | 65% | 1019 hPa | - | - | - | - |
| 1788084201 | 23.89° C | 65% | 1019 hPa | - | - | - | - |
| 1788083301 | 22.22° C | 69% | 1019 hPa | - | - | - | - |
| 1788082400 | 22.22° C | 69% | 1019 hPa | - | - | - | - |
| 1788081500 | 22.78° C | 65% | 1019 hPa | - | - | - | - |
* Rain since midnight (hover to see other rain measurements)
** Current wind speed in m/s (hover to see current wind gust speed)